Time;durP1;ratioP1;P1;durP2;ratioP2;P2;SDS_P1;SDS_P2;PMS_P1;PMS_P2;Temp;Humidity;BMP_temperature;BMP_pressure;BME280_temperature;BME280_humidity;BME280_pressure;Samples;Min_cycle;Max_cycle;Signal;HPM_P1;HPM_P2
2021/11/20 00:00:53;;;;;;;;;11.25;11.25;;;;;13.36;63.09;102442.63;2092392;28;47459;-61
2021/11/20 00:01:56;;;;;;;;;10.75;8.50;;;;;13.35;62.91;102436.41;2091144;28;48781;-62
2021/11/20 00:02:57;;;;;;;;;12.40;11.80;;;;;13.35;63.07;102436.41;2098757;27;46424;-61
2021/11/20 00:03:57;;;;;;;;;11.33;9.33;;;;;13.36;62.88;102437.28;2094309;27;45597;-62
2021/11/20 00:04:58;;;;;;;;;8.00;8.00;;;;;13.35;63.04;102441.75;2098970;27;46304;-61
2021/11/20 00:05:58;;;;;;;;;8.50;8.50;;;;;13.35;62.68;102441.75;2087704;28;47082;-62
2021/11/20 00:07:01;;;;;;;;;8.00;8.00;;;;;13.36;63.00;102439.97;2087543;28;47237;-62
2021/11/20 00:08:02;;;;;;;;;10.00;10.00;;;;;13.36;62.97;102434.63;2091691;27;48331;-61
2021/11/20 00:09:05;;;;;;;;;9.20;9.20;;;;;13.35;63.08;102433.75;2090973;28;47575;-65
2021/11/20 00:10:09;;;;;;;;;10.20;9.20;;;;;13.35;62.96;102438.19;2092822;28;48367;-61
2021/11/20 00:11:13;;;;;;;;;8.25;8.00;;;;;13.35;63.14;102439.06;2093370;27;47380;-62
2021/11/20 00:12:24;;;;;;;;;10.00;10.00;;;;;13.34;63.05;102434.63;2087974;28;48375;-61
2021/11/20 00:13:25;;;;;;;;;7.75;7.75;;;;;13.33;63.04;102431.94;2093787;28;48105;-61
2021/11/20 00:14:26;;;;;;;;;10.20;8.40;;;;;13.33;63.34;102434.63;2092140;27;47374;-62
2021/11/20 00:15:34;;;;;;;;;11.25;11.25;;;;;13.33;63.17;102426.63;2094727;28;46281;-62
2021/11/20 00:16:34;;;;;;;;;7.00;7.00;;;;;13.32;63.20;102427.50;2093998;28;47216;-62
2021/11/20 00:17:35;;;;;;;;;11.00;11.00;;;;;13.33;63.24;102427.50;2089694;27;47248;-61
2021/11/20 00:18:38;;;;;;;;;12.40;11.00;;;;;13.33;63.17;102421.28;2094236;28;46892;-62
2021/11/20 00:19:39;;;;;;;;;9.25;9.25;;;;;13.34;63.23;102425.72;2092378;28;47121;-62
2021/11/20 00:20:48;;;;;;;;;11.33;10.00;;;;;13.34;63.17;102429.31;2094006;27;47516;-61
2021/11/20 00:22:08;;;;;;;;;9.50;9.50;;;;;13.34;63.16;102423.06;2094817;28;47646;-62
2021/11/20 00:23:09;;;;;;;;;7.50;7.50;;;;;13.35;63.24;102424.84;2096307;27;47495;-62
2021/11/20 00:24:34;;;;;;;;;9.67;9.67;;;;;13.35;63.18;102419.53;2093420;27;47298;-61
2021/11/20 00:25:48;;;;;;;;;9.20;8.20;;;;;13.34;63.24;102420.38;2094604;27;47332;-61
2021/11/20 00:26:49;;;;;;;;;8.80;8.00;;;;;13.35;63.43;102416.84;2089734;28;46303;-61
2021/11/20 00:27:54;;;;;;;;;6.00;4.75;;;;;13.35;63.27;102417.75;2094465;28;45214;-61
2021/11/20 00:30:13;;;;;;;;;9.60;9.60;;;;;13.36;63.40;102421.28;2099686;27;47108;-61
2021/11/20 00:31:15;;;;;;;;;12.00;12.00;;;;;13.36;63.49;102418.63;2098786;28;48603;-61
2021/11/20 00:32:21;;;;;;;;;11.00;9.20;;;;;13.36;63.33;102415.97;2100538;28;46225;-61
2021/11/20 00:33:26;;;;;;;;;10.60;9.60;;;;;13.35;63.40;102422.19;2100365;27;47032;-61
2021/11/20 00:34:29;;;;;;;;;12.00;11.20;;;;;13.36;63.35;102415.97;2097919;27;47306;-61
2021/11/20 00:35:40;;;;;;;;;13.40;11.60;;;;;13.36;63.35;102410.63;2084396;28;46955;-62
2021/11/20 00:36:41;;;;;;;;;10.00;10.00;;;;;13.37;63.30;102413.28;2091890;28;46922;-61
2021/11/20 00:37:42;;;;;;;;;8.80;8.80;;;;;13.36;63.55;102403.50;2090429;28;47200;-61
2021/11/20 00:38:44;;;;;;;;;11.80;11.80;;;;;13.38;63.42;102409.72;2100756;27;46889;-61
2021/11/20 00:39:45;;;;;;;;;10.60;9.80;;;;;13.37;63.36;102405.28;2107747;27;47440;-61
2021/11/20 00:40:52;;;;;;;;;9.25;8.75;;;;;13.37;63.74;102407.94;2106950;27;47773;-62
2021/11/20 00:41:53;;;;;;;;;8.40;7.80;;;;;13.36;63.26;102408.84;2100854;28;47399;-62
2021/11/20 00:42:54;;;;;;;;;10.50;9.50;;;;;13.35;63.56;102408.84;2098257;28;47352;-61
2021/11/20 00:43:55;;;;;;;;;9.00;9.00;;;;;13.36;63.23;102406.19;2097388;28;45995;-62
2021/11/20 00:44:55;;;;;;;;;10.25;10.25;;;;;13.36;63.20;102405.28;2100358;27;47244;-61
2021/11/20 00:45:56;;;;;;;;;11.00;9.00;;;;;13.35;63.41;102404.41;2107028;27;46805;-61
2021/11/20 00:46:57;;;;;;;;;12.00;10.75;;;;;13.34;63.16;102394.63;2092353;27;47282;-61
2021/11/20 00:47:57;;;;;;;;;9.75;9.00;;;;;13.35;63.39;102395.53;2101022;28;46090;-60
2021/11/20 00:48:59;;;;;;;;;11.00;11.00;;;;;13.35;63.42;102396.41;2098017;28;48070;-60
2021/11/20 00:50:01;;;;;;;;;12.75;11.25;;;;;13.34;63.35;102396.38;2100357;28;45495;-61
2021/11/20 00:51:05;;;;;;;;;12.60;11.00;;;;;13.34;63.50;102399.06;2099594;27;47321;-61
2021/11/20 00:52:07;;;;;;;;;10.20;10.20;;;;;13.32;63.39;102399.06;2096622;27;48116;-60
2021/11/20 00:53:08;;;;;;;;;13.00;12.80;;;;;13.33;63.69;102395.50;2100879;27;48263;-61
2021/11/20 00:54:08;;;;;;;;;14.00;12.00;;;;;13.33;63.60;102386.63;2098990;27;47291;-60
2021/11/20 00:55:13;;;;;;;;;10.00;9.25;;;;;13.32;63.38;102388.41;2098009;27;46313;-60
2021/11/20 00:56:16;;;;;;;;;14.60;12.60;;;;;13.32;63.59;102393.72;2098657;27;47213;-59
2021/11/20 00:57:17;;;;;;;;;10.00;9.00;;;;;13.33;63.56;102386.63;2092065;28;47362;-61
2021/11/20 00:58:18;;;;;;;;;11.40;11.40;;;;;13.33;63.67;102389.28;2095753;28;47410;-60
2021/11/20 00:59:19;;;;;;;;;14.00;12.40;;;;;13.32;63.54;102384.84;2092916;27;47292;-60
2021/11/20 01:00:24;;;;;;;;;14.40;14.20;;;;;13.32;63.65;102383.06;2085141;27;47822;-61
2021/11/20 01:01:30;;;;;;;;;11.20;11.20;;;;;13.32;63.53;102376.84;2093501;28;47230;-61
2021/11/20 01:02:30;;;;;;;;;10.60;10.60;;;;;13.32;63.59;102376.84;2087023;28;47109;-61
2021/11/20 01:03:31;;;;;;;;;13.00;11.25;;;;;13.32;63.47;102376.84;2096642;28;47614;-61
2021/11/20 01:04:33;;;;;;;;;13.50;13.50;;;;;13.32;63.81;102379.53;2091716;28;47338;-60
2021/11/20 01:05:34;;;;;;;;;10.60;10.60;;;;;13.32;63.80;102383.06;2089099;28;47611;-61
2021/11/20 01:06:36;;;;;;;;;15.00;11.60;;;;;13.34;63.72;102380.38;2099961;27;45474;-61
2021/11/20 01:07:37;;;;;;;;;13.60;13.00;;;;;13.32;63.62;102380.41;2094655;28;47303;-60
2021/11/20 01:08:47;;;;;;;;;13.25;13.25;;;;;13.33;63.79;102382.16;2087435;28;47857;-60
2021/11/20 01:09:48;;;;;;;;;10.00;9.80;;;;;13.34;63.88;102380.38;2092464;28;45669;-61
2021/11/20 01:10:52;;;;;;;;;10.50;10.50;;;;;13.33;63.77;102379.50;2092528;28;47586;-60
2021/11/20 01:12:04;;;;;;;;;8.25;8.25;;;;;13.32;63.78;102377.75;2100736;27;47298;-61
2021/11/20 01:13:06;;;;;;;;;12.00;11.80;;;;;13.33;63.72;102383.97;2105700;27;46268;-60
2021/11/20 01:14:09;;;;;;;;;12.00;12.00;;;;;13.33;63.81;102387.50;2095959;28;45833;-61
2021/11/20 01:15:29;;;;;;;;;11.60;11.60;;;;;13.33;63.89;102382.16;2096456;27;45431;-60
2021/11/20 01:16:31;;;;;;;;;9.75;9.75;;;;;13.32;63.80;102380.41;2098244;28;47225;-61
2021/11/20 01:17:32;;;;;;;;;12.00;9.00;;;;;13.32;63.86;102375.06;2096663;28;45512;-61
2021/11/20 01:18:33;;;;;;;;;9.80;9.60;;;;;13.32;63.85;102372.41;2094985;27;47267;-60
2021/11/20 01:19:35;;;;;;;;;14.00;14.00;;;;;13.32;63.63;102372.41;2099962;27;47528;-60
2021/11/20 01:20:36;;;;;;;;;11.20;11.20;;;;;13.33;63.44;102373.28;2087342;28;47151;-60
2021/11/20 01:21:38;;;;;;;;;10.40;8.80;;;;;13.32;63.62;102363.53;2088030;28;47767;-60
2021/11/20 01:22:39;;;;;;;;;13.00;13.00;;;;;13.31;63.55;102370.63;2084275;28;45393;-61
2021/11/20 01:23:40;;;;;;;;;9.50;9.50;;;;;13.31;63.68;102375.09;2093896;28;46755;-60
2021/11/20 01:24:41;;;;;;;;;12.00;11.40;;;;;13.30;63.71;102371.53;2092063;27;47137;-60
2021/11/20 01:25:42;;;;;;;;;12.60;12.60;;;;;13.30;63.73;102366.19;2092320;27;47141;-61
2021/11/20 01:26:43;;;;;;;;;12.40;11.20;;;;;13.29;63.83;102363.56;2094186;28;46281;-60
2021/11/20 01:27:44;;;;;;;;;12.80;10.60;;;;;13.29;63.64;102364.44;2098575;28;47653;-59
2021/11/20 01:28:49;;;;;;;;;13.50;13.50;;;;;13.28;63.73;102361.78;2090031;28;47380;-60
2021/11/20 01:29:51;;;;;;;;;12.40;10.40;;;;;13.28;63.82;102354.66;2088021;28;48309;-61
2021/11/20 01:30:52;;;;;;;;;13.00;12.40;;;;;13.28;63.88;102353.78;2099529;27;48504;-60
2021/11/20 01:31:55;;;;;;;;;12.60;11.00;;;;;13.28;63.88;102356.44;2096367;28;48251;-61
2021/11/20 01:32:55;;;;;;;;;11.40;11.20;;;;;13.28;63.72;102360.00;2095524;27;48210;-60
2021/11/20 01:33:56;;;;;;;;;11.25;10.00;;;;;13.28;63.94;102357.34;2099105;28;48400;-60
2021/11/20 01:34:57;;;;;;;;;13.25;13.25;;;;;13.28;63.57;102361.78;2094625;27;47899;-60
2021/11/20 01:35:58;;;;;;;;;9.00;8.00;;;;;13.26;63.79;102351.13;2097645;27;46966;-61
2021/11/20 01:37:00;;;;;;;;;12.00;12.00;;;;;13.27;63.65;102357.34;2094434;28;46440;-60
2021/11/20 01:38:01;;;;;;;;;12.60;12.40;;;;;13.25;63.49;102352.91;2091478;28;47488;-61
2021/11/20 01:39:10;;;;;;;;;9.00;9.00;;;;;13.25;63.76;102360.03;2088041;28;46279;-60
2021/11/20 01:40:15;;;;;;;;;11.40;9.40;;;;;13.25;63.52;102365.38;2083475;28;47270;-60
2021/11/20 01:41:17;;;;;;;;;9.40;9.40;;;;;13.23;63.61;102357.38;2090671;28;47599;-60
2021/11/20 01:42:23;;;;;;;;;13.80;12.20;;;;;13.24;63.65;102360.94;2083525;28;48100;-61
2021/11/20 01:43:23;;;;;;;;;10.80;9.80;;;;;13.23;63.50;102362.72;2084045;28;47265;-62
2021/11/20 01:44:35;;;;;;;;;10.00;10.00;;;;;13.24;63.86;102368.94;2091582;28;47836;-61
2021/11/20 01:46:00;;;;;;;;;13.80;12.60;;;;;13.22;63.75;102357.38;2091422;28;48185;-60
2021/11/20 01:47:14;;;;;;;;;16.00;11.80;;;;;13.21;63.45;102358.25;2091171;28;45300;-61
2021/11/20 01:48:37;;;;;;;;;13.40;13.40;;;;;13.21;63.88;102358.25;2084244;28;48097;-60
2021/11/20 01:49:40;;;;;;;;;9.80;9.80;;;;;13.20;63.78;102356.50;2083872;28;47421;-61
2021/11/20 01:50:43;;;;;;;;;12.50;12.50;;;;;13.20;63.99;102351.16;2088483;28;47687;-60
2021/11/20 01:51:51;;;;;;;;;12.50;10.50;;;;;13.20;63.85;102351.16;2092188;28;47647;-60
2021/11/20 01:52:51;;;;;;;;;12.20;11.00;;;;;13.20;63.74;102356.50;2092188;28;47295;-61
2021/11/20 01:54:15;;;;;;;;;11.00;11.00;;;;;13.20;63.47;102352.03;2091965;27;47041;-60
2021/11/20 01:55:23;;;;;;;;;12.40;12.20;;;;;13.20;63.76;102351.16;2086712;28;47504;-60
2021/11/20 01:56:31;;;;;;;;;12.60;11.40;;;;;13.18;63.63;102337.84;2092175;27;47145;-61
2021/11/20 01:57:32;;;;;;;;;11.40;11.40;;;;;13.19;63.61;102347.59;2083474;28;46489;-60
2021/11/20 01:59:01;;;;;;;;;10.50;10.50;;;;;13.18;63.76;102339.59;2086612;28;48039;-60
2021/11/20 02:00:16;;;;;;;;;12.40;12.20;;;;;13.18;63.75;102336.91;2085955;28;47810;-61
2021/11/20 02:01:23;;;;;;;;;12.60;11.40;;;;;13.17;63.74;102338.69;2090258;28;48147;-61
2021/11/20 02:02:57;;;;;;;;;14.80;11.80;;;;;13.18;63.62;102343.16;2083974;28;48147;-61
2021/11/20 02:04:13;;;;;;;;;13.20;12.00;;;;;13.16;63.77;102334.28;2099773;27;46835;-61
2021/11/20 02:05:23;;;;;;;;;13.40;13.40;;;;;13.15;63.67;102339.63;2095694;27;47310;-61
2021/11/20 02:06:36;;;;;;;;;16.60;12.60;;;;;13.16;63.64;102336.06;2099775;28;48705;-60
2021/11/20 02:07:43;;;;;;;;;16.00;15.20;;;;;13.13;63.81;102336.97;2096711;27;47484;-61
2021/11/20 02:08:50;;;;;;;;;13.00;12.80;;;;;13.14;63.82;102340.50;2091524;28;47196;-60
2021/11/20 02:10:15;;;;;;;;;12.50;12.50;;;;;13.13;63.72;102328.09;2100383;28;46276;-61
2021/11/20 02:11:26;;;;;;;;;11.20;9.80;;;;;13.14;63.79;102337.84;2094905;28;48454;-61
2021/11/20 02:12:34;;;;;;;;;10.25;9.75;;;;;13.13;63.68;102336.97;2086294;28;47505;-61
2021/11/20 02:13:36;;;;;;;;;11.50;11.00;;;;;13.14;63.85;102337.84;2085699;28;47515;-61
2021/11/20 02:14:39;;;;;;;;;13.00;12.50;;;;;13.14;63.87;102335.19;2091984;28;46325;-61
2021/11/20 02:16:03;;;;;;;;;15.00;14.60;;;;;13.14;63.81;102332.53;2092234;28;48342;-60
2021/11/20 02:17:14;;;;;;;;;14.20;13.20;;;;;13.13;63.66;102341.41;2092078;28;46662;-61
2021/11/20 02:18:17;;;;;;;;;13.60;11.20;;;;;13.14;63.79;102340.50;2091688;28;47072;-61
2021/11/20 02:19:26;;;;;;;;;15.60;13.60;;;;;13.13;63.80;102342.28;2091383;28;48037;-61
2021/11/20 02:20:33;;;;;;;;;13.80;13.80;;;;;13.12;63.66;102335.19;2091887;28;45333;-61
2021/11/20 02:21:45;;;;;;;;;16.50;14.75;;;;;13.12;63.81;102332.53;2088283;28;47335;-61
2021/11/20 02:22:46;;;;;;;;;14.60;14.60;;;;;13.13;63.84;102338.75;2091509;28;48443;-61
2021/11/20 02:23:46;;;;;;;;;12.00;12.00;;;;;13.12;64.00;102335.19;2092155;27;47265;-60
2021/11/20 02:24:46;;;;;;;;;15.33;15.00;;;;;13.11;63.97;102332.53;2091991;28;47152;-60
2021/11/20 02:25:48;;;;;;;;;12.33;12.33;;;;;13.11;63.89;102338.75;2108201;27;46868;-61
2021/11/20 02:26:49;;;;;;;;;14.00;12.60;;;;;13.10;63.95;102334.31;2102919;27;47341;-60
2021/11/20 02:27:54;;;;;;;;;17.33;14.33;;;;;13.10;64.04;102333.44;2083845;28;47173;-60
2021/11/20 02:28:56;;;;;;;;;13.40;13.40;;;;;13.09;63.97;102334.34;2083286;28;47686;-60
2021/11/20 02:30:19;;;;;;;;;13.40;13.40;;;;;13.08;63.74;102333.41;2087555;28;47410;-61
2021/11/20 02:31:20;;;;;;;;;15.20;13.00;;;;;13.09;63.88;102326.34;2091913;27;47420;-61
2021/11/20 02:32:22;;;;;;;;;11.67;11.67;;;;;13.08;63.59;102320.09;2091692;28;47273;-62
2021/11/20 02:33:28;;;;;;;;;14.80;14.80;;;;;13.08;63.85;102320.09;2090984;28;47272;-61
2021/11/20 02:34:32;;;;;;;;;16.75;13.00;;;;;13.08;64.06;102319.22;2092185;28;47538;-61
2021/11/20 02:35:36;;;;;;;;;14.20;14.00;;;;;13.07;63.90;102326.31;2091852;28;45419;-60
2021/11/20 02:36:38;;;;;;;;;18.20;14.20;;;;;13.07;63.85;102323.66;2091964;28;47556;-60
2021/11/20 02:37:40;;;;;;;;;15.60;15.00;;;;;13.07;63.91;102328.09;2091809;28;47452;-61
2021/11/20 02:38:58;;;;;;;;;14.50;13.25;;;;;13.07;63.88;102329.00;2091900;27;47241;-60
2021/11/20 02:39:58;;;;;;;;;16.00;16.00;;;;;13.07;63.79;102322.78;2099772;28;47264;-61
2021/11/20 02:41:00;;;;;;;;;14.75;13.75;;;;;13.06;63.74;102324.56;2099331;28;47252;-61
2021/11/20 02:42:05;;;;;;;;;15.50;13.50;;;;;13.05;64.01;102317.47;2091397;28;47019;-60
2021/11/20 02:43:07;;;;;;;;;17.50;13.00;;;;;13.06;63.96;102321.88;2091465;28;47358;-60
2021/11/20 02:44:08;;;;;;;;;15.50;14.00;;;;;13.04;63.84;102313.03;2088499;28;46564;-61
2021/11/20 02:45:18;;;;;;;;;17.40;15.80;;;;;13.05;64.05;102319.25;2090783;28;46181;-61
2021/11/20 02:46:22;;;;;;;;;18.20;16.00;;;;;13.04;63.86;102321.03;2091182;28;47270;-61
2021/11/20 02:47:28;;;;;;;;;12.20;11.20;;;;;13.04;64.04;102317.47;2091792;28;48484;-61
2021/11/20 02:48:28;;;;;;;;;14.60;13.80;;;;;13.03;64.03;102310.38;2091360;28;47488;-60
2021/11/20 02:49:30;;;;;;;;;14.75;14.50;;;;;13.03;63.95;102316.59;2091076;28;45982;-61
2021/11/20 02:50:38;;;;;;;;;17.00;15.75;;;;;13.03;64.06;102307.72;2091822;28;47251;-60
2021/11/20 02:51:49;;;;;;;;;12.75;12.25;;;;;13.02;64.06;102306.81;2091850;28;47459;-61
2021/11/20 02:52:50;;;;;;;;;19.20;15.80;;;;;13.03;64.07;102310.38;2091633;28;47478;-61
2021/11/20 02:53:55;;;;;;;;;15.33;12.00;;;;;13.02;64.05;102309.50;2092021;28;47162;-61
2021/11/20 02:54:56;;;;;;;;;15.00;14.50;;;;;13.03;63.97;102297.03;2098964;28;47606;-61
2021/11/20 02:55:57;;;;;;;;;14.60;13.60;;;;;13.02;64.06;102303.28;2099738;28;45358;-61
2021/11/20 02:57:11;;;;;;;;;12.50;12.50;;;;;13.03;64.02;102297.03;2091450;27;47098;-63
2021/11/20 02:58:15;;;;;;;;;14.40;14.00;;;;;13.02;64.13;102298.84;2096907;28;46392;-61
2021/11/20 02:59:16;;;;;;;;;12.00;12.00;;;;;13.02;63.84;102298.84;2093971;27;47371;-62
2021/11/20 03:00:18;;;;;;;;;15.25;14.50;;;;;13.00;63.77;102292.63;2099218;27;47711;-61
2021/11/20 03:01:26;;;;;;;;;17.80;15.60;;;;;13.01;63.73;102298.84;2091438;28;47268;-62
2021/11/20 03:02:26;;;;;;;;;15.25;12.25;;;;;12.99;63.85;102298.84;2091753;28;47428;-60
2021/11/20 03:03:27;;;;;;;;;14.75;13.50;;;;;12.98;63.88;102291.75;2094825;27;48134;-62
2021/11/20 03:04:28;;;;;;;;;19.00;16.00;;;;;12.98;63.77;102294.44;2094688;28;46605;-61
2021/11/20 03:05:28;;;;;;;;;13.00;13.00;;;;;12.97;63.92;102295.31;2107416;27;45396;-60
2021/11/20 03:06:31;;;;;;;;;14.67;14.67;;;;;12.96;63.85;102299.78;2098005;28;47960;-60
2021/11/20 03:07:31;;;;;;;;;15.25;15.25;;;;;12.96;63.82;102294.44;2078858;28;45407;-61
2021/11/20 03:08:32;;;;;;;;;13.00;12.00;;;;;12.96;63.87;102288.22;2069295;28;47328;-61
2021/11/20 03:09:35;;;;;;;;;13.33;13.33;;;;;12.96;63.79;102288.22;2094804;28;48021;-61
2021/11/20 03:10:35;;;;;;;;;12.75;12.75;;;;;12.97;63.77;102300.66;2086594;28;46908;-60
2021/11/20 03:11:36;;;;;;;;;12.67;12.67;;;;;12.96;63.88;102286.44;2084758;27;47752;-61
2021/11/20 03:12:37;;;;;;;;;13.67;13.67;;;;;12.96;63.93;102282.91;2090764;28;48509;-61
2021/11/20 03:13:38;;;;;;;;;12.25;11.75;;;;;12.96;63.78;102283.78;2091442;28;47170;-61
2021/11/20 03:14:39;;;;;;;;;12.33;11.33;;;;;12.97;63.49;102290.00;2091295;28;48722;-61
2021/11/20 03:15:39;;;;;;;;;15.00;13.75;;;;;12.96;63.83;102283.78;2091633;27;47745;-60
2021/11/20 03:16:46;;;;;;;;;16.00;15.00;;;;;12.95;63.67;102279.31;2085303;28;47357;-61
2021/11/20 03:17:47;;;;;;;;;10.00;9.00;;;;;12.95;63.70;102289.97;2095883;28;48410;-61
2021/11/20 03:18:47;;;;;;;;;13.33;13.33;;;;;12.94;63.63;102279.34;2099334;28;46294;-60
2021/11/20 03:19:49;;;;;;;;;10.00;10.00;;;;;12.94;63.78;102282.00;2083382;28;48198;-61
2021/11/20 03:20:51;;;;;;;;;11.60;10.80;;;;;12.93;63.80;102278.44;2083285;28;45164;-61
2021/11/20 03:21:59;;;;;;;;;10.50;10.50;;;;;12.93;63.76;102273.13;2082377;28;46994;-61
2021/11/20 03:23:11;;;;;;;;;13.75;13.75;;;;;12.93;63.81;102274.91;2091059;28;48371;-61
2021/11/20 03:24:15;;;;;;;;;13.75;13.00;;;;;12.93;63.70;102280.22;2091662;28;46193;-61
2021/11/20 03:25:16;;;;;;;;;11.75;11.00;;;;;12.93;63.73;102274.91;2087904;28;48481;-61
2021/11/20 03:26:16;;;;;;;;;12.00;12.00;;;;;12.93;63.77;102266.91;2091585;28;47606;-61
2021/11/20 03:27:18;;;;;;;;;16.67;15.00;;;;;12.93;63.59;102270.44;2088146;28;47169;-62
2021/11/20 03:28:18;;;;;;;;;15.60;14.60;;;;;12.93;63.74;102266.91;2091137;28;45420;-61
2021/11/20 03:29:20;;;;;;;;;14.33;14.33;;;;;12.93;63.57;102264.25;2090568;28;47049;-62
2021/11/20 03:30:21;;;;;;;;;14.25;12.50;;;;;12.91;63.63;102258.91;2083127;28;47065;-60
2021/11/20 03:31:22;;;;;;;;;10.20;10.20;;;;;12.91;63.74;102264.25;2083360;28;48089;-62
2021/11/20 03:32:22;;;;;;;;;10.33;9.67;;;;;12.91;63.78;102258.91;2083345;28;47503;-62
2021/11/20 03:33:23;;;;;;;;;13.75;13.00;;;;;12.90;63.60;102256.28;2083167;28;47308;-60
2021/11/20 03:34:27;;;;;;;;;12.75;12.75;;;;;12.90;63.83;102256.28;2099470;28;46824;-62
2021/11/20 03:35:29;;;;;;;;;13.00;12.25;;;;;12.89;63.75;102241.19;2098253;27;47324;-61
2021/11/20 03:36:31;;;;;;;;;11.75;9.75;;;;;12.89;63.74;102250.06;2083300;28;47826;-61
2021/11/20 03:37:32;;;;;;;;;13.75;10.00;;;;;12.90;63.99;102245.63;2083176;28;45981;-61
2021/11/20 03:38:33;;;;;;;;;11.50;10.00;;;;;12.88;64.08;102242.97;2082932;28;48131;-62
2021/11/20 03:39:34;;;;;;;;;11.25;8.00;;;;;12.88;63.95;102242.97;2090986;28;47227;-61
2021/11/20 03:40:35;;;;;;;;;14.25;12.50;;;;;12.89;63.85;102243.84;2084985;28;45503;-61
2021/11/20 03:41:35;;;;;;;;;15.80;12.60;;;;;12.89;63.87;102246.50;2095899;27;47544;-61
2021/11/20 03:42:36;;;;;;;;;10.75;10.50;;;;;12.89;63.91;102244.72;2082677;28;46986;-61
2021/11/20 03:43:37;;;;;;;;;11.50;11.50;;;;;12.89;63.91;102238.53;2096932;27;45398;-61
2021/11/20 03:44:37;;;;;;;;;13.50;13.50;;;;;12.88;63.80;102239.41;2083841;28;48288;-61
2021/11/20 03:45:38;;;;;;;;;13.33;12.00;;;;;12.88;63.78;102237.63;2091291;28;47065;-60
2021/11/20 03:46:40;;;;;;;;;15.50;11.75;;;;;12.87;64.00;102230.53;2091298;28;45408;-61
2021/11/20 03:47:41;;;;;;;;;12.20;10.40;;;;;12.87;63.94;102235.88;2091730;28;47373;-61
2021/11/20 03:48:41;;;;;;;;;12.00;10.33;;;;;12.88;63.86;102237.63;2096838;28;46111;-61
2021/11/20 03:49:43;;;;;;;;;14.75;13.75;;;;;12.87;63.76;102230.53;2099118;28;47355;-62
2021/11/20 03:50:45;;;;;;;;;11.75;10.00;;;;;12.87;63.87;102229.66;2090402;28;47942;-61
2021/11/20 03:51:45;;;;;;;;;14.00;13.00;;;;;12.87;63.87;102230.53;2091092;28;46262;-61
2021/11/20 03:52:46;;;;;;;;;11.33;11.33;;;;;12.87;63.71;102224.31;2090858;28;48591;-61
2021/11/20 03:53:47;;;;;;;;;6.50;6.50;;;;;12.86;63.62;102222.56;2099105;28;48110;-62
2021/11/20 03:54:50;;;;;;;;;10.33;10.33;;;;;12.86;63.72;102230.56;2098923;28;48000;-61
2021/11/20 03:55:51;;;;;;;;;9.75;9.50;;;;;12.86;63.73;102215.47;2091032;28;48345;-61
2021/11/20 03:56:51;;;;;;;;;12.00;8.00;;;;;12.86;63.73;102217.22;2083612;28;47330;-61
2021/11/20 03:57:52;;;;;;;;;9.00;8.67;;;;;12.85;63.77;102218.13;2087592;28;47618;-61
2021/11/20 03:58:53;;;;;;;;;6.75;6.00;;;;;12.83;63.62;102210.16;2091165;28;48385;-62
2021/11/20 03:59:54;;;;;;;;;14.33;11.33;;;;;12.83;63.91;102212.81;2091609;28;45265;-61
2021/11/20 04:01:08;;;;;;;;;10.00;10.00;;;;;12.82;63.83;102213.69;2098408;28;47354;-60
2021/11/20 04:02:08;;;;;;;;;7.50;7.50;;;;;12.82;63.85;102220.78;2097763;27;47204;-60
2021/11/20 04:03:10;;;;;;;;;9.00;9.00;;;;;12.82;63.82;102218.13;2096341;27;45869;-61
2021/11/20 04:04:10;;;;;;;;;11.00;8.25;;;;;12.81;63.80;102219.03;2091179;28;48213;-61
2021/11/20 04:05:11;;;;;;;;;8.33;8.33;;;;;12.81;63.66;102221.69;2086963;28;47172;-60
2021/11/20 04:06:14;;;;;;;;;10.00;9.00;;;;;12.81;63.85;102219.03;2099173;27;47374;-60
2021/11/20 04:07:14;;;;;;;;;10.75;10.75;;;;;12.80;63.76;102226.13;2098428;27;47652;-61
2021/11/20 04:08:15;;;;;;;;;10.33;8.33;;;;;12.80;63.92;102217.25;2090487;27;47450;-61
2021/11/20 04:09:15;;;;;;;;;9.00;9.00;;;;;12.79;63.76;102213.72;2099134;28;47337;-60
2021/11/20 04:10:19;;;;;;;;;7.67;7.67;;;;;12.79;63.60;102218.16;2090860;28;46627;-62
2021/11/20 04:11:27;;;;;;;;;10.00;7.25;;;;;12.77;63.83;102211.97;2087050;28;48331;-60
2021/11/20 04:12:27;;;;;;;;;11.25;8.25;;;;;12.77;63.79;102211.97;2090287;28;47255;-61
2021/11/20 04:13:28;;;;;;;;;7.00;6.00;;;;;12.76;63.66;102215.53;2091256;28;48351;-61
2021/11/20 04:14:28;;;;;;;;;8.00;8.00;;;;;12.77;63.76;102214.63;2091879;28;47210;-61
2021/11/20 04:15:29;;;;;;;;;8.00;8.00;;;;;12.76;63.85;102210.19;2090768;28;47118;-61
2021/11/20 04:16:31;;;;;;;;;6.67;6.67;;;;;12.76;63.62;102210.19;2090955;28;46757;-61
2021/11/20 04:17:32;;;;;;;;;8.50;7.75;;;;;12.75;63.50;102203.97;2090558;28;47313;-60
2021/11/20 04:18:33;;;;;;;;;4.33;4.33;;;;;12.74;63.45;102204.88;2091306;27;47306;-60
2021/11/20 04:19:34;;;;;;;;;7.75;6.00;;;;;12.74;63.65;102201.34;2098936;28;47407;-62
2021/11/20 04:20:34;;;;;;;;;7.00;6.00;;;;;12.73;63.43;102204.91;2090820;28;45897;-60
2021/11/20 04:21:36;;;;;;;;;6.00;5.33;;;;;12.72;63.65;102201.34;2082316;28;48183;-61
2021/11/20 04:22:37;;;;;;;;;4.00;4.00;;;;;12.72;63.57;102200.47;2090331;28;48565;-61
2021/11/20 04:23:38;;;;;;;;;6.00;6.00;;;;;12.71;63.54;102204.91;2086002;28;48074;-62
2021/11/20 04:24:39;;;;;;;;;6.67;6.33;;;;;12.71;63.35;102196.91;2091037;28;46966;-61
2021/11/20 04:25:40;;;;;;;;;5.75;5.50;;;;;12.68;63.31;102194.25;2091315;28;47712;-60
2021/11/20 04:26:41;;;;;;;;;6.33;5.33;;;;;12.68;63.46;102204.91;2090859;28;48029;-61
2021/11/20 04:27:42;;;;;;;;;4.00;4.00;;;;;12.66;63.51;102194.25;2091496;28;47547;-61
2021/11/20 04:28:43;;;;;;;;;4.33;4.33;;;;;12.65;63.40;102192.50;2090729;28;45500;-61
2021/11/20 04:29:43;;;;;;;;;3.33;3.33;;;;;12.64;63.26;102184.53;2091485;27;48329;-61
2021/11/20 04:30:45;;;;;;;;;5.00;3.00;;;;;12.63;63.45;102194.28;2090611;28;48031;-61
2021/11/20 04:31:47;;;;;;;;;5.00;3.50;;;;;12.62;63.47;102187.19;2090933;28;47471;-60
2021/11/20 04:32:48;;;;;;;;;3.00;2.25;;;;;12.62;63.24;102192.53;2090692;28;47651;-61
2021/11/20 04:33:51;;;;;;;;;4.75;3.00;;;;;12.62;63.46;102189.88;2099224;27;47351;-61
2021/11/20 04:34:52;;;;;;;;;3.00;3.00;;;;;12.63;63.57;102194.28;2090562;28;47876;-60
2021/11/20 04:35:52;;;;;;;;;3.00;3.00;;;;;12.62;63.51;102183.66;2091432;28;47354;-61
2021/11/20 04:36:53;;;;;;;;;2.00;2.00;;;;;12.62;63.43;102176.56;2090475;28;48310;-61
2021/11/20 04:37:54;;;;;;;;;3.00;3.00;;;;;12.61;63.48;102177.44;2090554;28;48171;-61
2021/11/20 04:38:55;;;;;;;;;3.75;3.75;;;;;12.61;63.30;102174.78;2090978;28;47518;-60
2021/11/20 04:39:58;;;;;;;;;3.67;3.00;;;;;12.62;63.22;102181.00;2091405;28;48333;-60
2021/11/20 04:40:58;;;;;;;;;2.75;2.75;;;;;12.61;63.31;102179.22;2091147;28;46879;-60
2021/11/20 04:41:59;;;;;;;;;2.00;2.00;;;;;12.60;63.32;102182.78;2091480;28;47218;-60
2021/11/20 04:42:59;;;;;;;;;4.33;4.33;;;;;12.60;63.36;102178.34;2091057;28;47209;-60
2021/11/20 04:44:00;;;;;;;;;5.00;5.00;;;;;12.60;63.29;102177.47;2088435;27;47228;-61
2021/11/20 04:45:01;;;;;;;;;5.50;3.75;;;;;12.59;63.36;102186.34;2088845;28;45557;-60
2021/11/20 04:46:03;;;;;;;;;5.00;5.00;;;;;12.59;63.40;102184.56;2087917;28;47178;-60
2021/11/20 04:47:04;;;;;;;;;5.00;5.00;;;;;12.58;63.34;102180.13;2090261;28;46258;-61
2021/11/20 04:48:06;;;;;;;;;8.00;6.00;;;;;12.59;63.40;102181.03;2099276;28;47182;-61
2021/11/20 04:49:07;;;;;;;;;6.25;5.50;;;;;12.57;63.22;102175.69;2098477;28;45371;-61
2021/11/20 04:50:09;;;;;;;;;6.00;4.00;;;;;12.58;63.23;102179.25;2091232;28;48041;-61
2021/11/20 04:51:10;;;;;;;;;3.00;3.00;;;;;12.57;63.43;102175.69;2090341;28;47716;-60
2021/11/20 04:52:12;;;;;;;;;4.25;4.25;;;;;12.57;63.29;102175.69;2090767;28;47176;-60
2021/11/20 04:53:13;;;;;;;;;4.00;4.00;;;;;12.57;63.39;102175.69;2090219;28;47955;-60